Time;durP1;ratioP1;P1;durP2;ratioP2;P2;SDS_P1;SDS_P2;PMS_P1;PMS_P2;Temp;Humidity;BMP_temperature;BMP_pressure;BME280_temperature;BME280_humidity;BME280_pressure;Samples;Min_cycle;Max_cycle;Signal;HPM_P1;HPM_P2
2022/11/26 00:02:22;;;;;;;35.17;24.40;;;6.80;99.90;;;;;;5073852;28;20984;-77
2022/11/26 00:04:51;;;;;;;35.10;26.07;;;6.80;99.90;;;;;;5073786;28;20461;-77
2022/11/26 00:07:24;;;;;;;33.40;25.43;;;6.80;99.90;;;;;;5072639;28;20445;-77
2022/11/26 00:09:53;;;;;;;31.37;23.03;;;6.80;99.90;;;;;;5073578;28;20858;-77
2022/11/26 00:12:24;;;;;;;35.07;23.63;;;6.70;99.90;;;;;;5072449;28;20509;-77
2022/11/26 00:14:53;;;;;;;36.37;23.90;;;6.70;99.90;;;;;;5072378;28;20472;-77
2022/11/26 00:17:21;;;;;;;28.93;23.27;;;6.70;99.90;;;;;;5073615;28;20437;-77
2022/11/26 00:19:50;;;;;;;36.57;23.37;;;6.70;99.90;;;;;;5072347;28;20468;-77
2022/11/26 00:22:24;;;;;;;31.40;23.93;;;6.70;99.90;;;;;;5073595;28;20425;-77
2022/11/26 00:24:53;;;;;;;37.50;24.47;;;6.70;99.90;;;;;;5072234;28;20469;-77
2022/11/26 00:27:24;;;;;;;39.70;25.00;;;6.70;99.90;;;;;;5072248;28;20490;-77
2022/11/26 00:29:53;;;;;;;29.83;23.50;;;6.70;99.90;;;;;;5072025;28;20806;-77
2022/11/26 00:32:24;;;;;;;30.63;22.80;;;6.70;99.90;;;;;;5072187;28;20524;-77
2022/11/26 00:34:53;;;;;;;31.50;22.57;;;6.60;99.90;;;;;;5072180;28;20484;-77
2022/11/26 00:37:28;;;;;;;29.20;22.63;;;6.60;99.90;;;;;;5073659;28;20442;-77
2022/11/26 00:39:57;;;;;;;29.30;22.00;;;6.60;99.90;;;;;;5073993;28;20413;-77
2022/11/26 00:42:25;;;;;;;30.63;22.47;;;6.60;99.90;;;;;;5072090;28;20449;-77
2022/11/26 00:44:53;;;;;;;31.40;24.20;;;6.60;99.90;;;;;;5071911;28;20482;-77
2022/11/26 00:47:21;;;;;;;27.90;22.53;;;6.60;99.90;;;;;;5072844;28;20843;-77
2022/11/26 00:49:49;;;;;;;28.83;21.77;;;6.60;99.90;;;;;;5071913;28;20475;-77
2022/11/26 00:52:32;;;;;;;32.33;21.60;;;6.50;99.90;;;;;;5071938;28;20450;-77
2022/11/26 00:55:06;;;;;;;26.43;20.30;;;6.50;99.90;;;;;;5072966;28;20454;-77
2022/11/26 00:57:34;;;;;;;31.60;22.60;;;6.50;99.90;;;;;;5073480;28;20457;-77
2022/11/26 01:00:06;;;;;;;27.60;20.93;;;6.50;99.90;;;;;;5071868;28;20456;-77
2022/11/26 01:02:34;;;;;;;35.13;22.27;;;6.50;99.90;;;;;;5071918;28;20442;-77
2022/11/26 01:05:03;;;;;;;33.23;22.10;;;6.50;99.90;;;;;;5073336;28;20441;-77
2022/11/26 01:07:32;;;;;;;34.20;23.20;;;6.50;99.90;;;;;;5077186;28;20491;-77
2022/11/26 01:10:00;;;;;;;28.90;21.43;;;6.40;99.90;;;;;;5075705;28;20518;-78
2022/11/26 01:12:28;;;;;;;28.20;20.83;;;6.40;99.90;;;;;;5073723;28;20438;-78
2022/11/26 01:14:57;;;;;;;28.70;22.47;;;6.40;99.90;;;;;;5073669;28;20460;-77
2022/11/26 01:17:25;;;;;;;32.63;22.10;;;6.40;99.90;;;;;;5074847;28;20433;-77
2022/11/26 01:19:53;;;;;;;28.87;22.37;;;6.40;99.90;;;;;;5074570;28;20437;-77
2022/11/26 01:22:23;;;;;;;32.53;22.17;;;6.40;99.90;;;;;;5072204;28;20950;-77
2022/11/26 01:24:53;;;;;;;33.27;22.83;;;6.30;99.90;;;;;;5073517;28;20457;-78
2022/11/26 01:27:21;;;;;;;27.83;21.30;;;6.30;99.90;;;;;;5071793;28;20448;-78
2022/11/26 01:29:49;;;;;;;29.83;21.90;;;6.30;99.90;;;;;;5071569;28;20449;-77
2022/11/26 01:32:17;;;;;;;32.03;21.33;;;6.30;99.90;;;;;;5071783;28;20429;-77
2022/11/26 01:34:45;;;;;;;30.70;20.80;;;6.30;99.90;;;;;;5071995;28;20475;-77
2022/11/26 01:37:14;;;;;;;32.93;21.50;;;6.30;99.90;;;;;;5076597;28;20445;-77
2022/11/26 01:39:42;;;;;;;27.87;22.93;;;6.30;99.90;;;;;;5073348;28;20455;-77
2022/11/26 01:42:22;;;;;;;26.37;20.57;;;6.20;99.90;;;;;;5073947;28;20441;-77
2022/11/26 01:44:50;;;;;;;31.30;20.40;;;6.20;99.90;;;;;;5072150;28;20476;-77
2022/11/26 01:47:22;;;;;;;32.20;21.77;;;6.20;99.90;;;;;;5071933;28;20445;-77
2022/11/26 01:50:27;;;;;;;27.57;21.50;;;6.20;99.90;;;;;;5073570;28;20753;-77
2022/11/26 01:52:59;;;;;;;33.63;21.37;;;6.20;99.90;;;;;;5071396;28;20545;-77
2022/11/26 01:55:32;;;;;;;30.23;21.37;;;6.20;99.90;;;;;;5072979;28;20425;-77
2022/11/26 01:58:02;;;;;;;30.00;21.63;;;6.20;99.90;;;;;;5071431;28;20558;-77
2022/11/26 02:00:30;;;;;;;37.20;23.00;;;6.20;99.90;;;;;;5071883;28;20448;-77
2022/11/26 02:02:58;;;;;;;34.67;21.83;;;6.20;99.90;;;;;;5071321;28;20526;-77
2022/11/26 02:05:29;;;;;;;28.90;21.40;;;6.20;99.90;;;;;;5071396;28;20445;-77
2022/11/26 02:07:58;;;;;;;29.40;22.90;;;6.20;99.90;;;;;;5075495;28;20453;-77
2022/11/26 02:10:26;;;;;;;36.80;21.20;;;6.20;99.90;;;;;;5074925;28;20495;-77
2022/11/26 02:12:54;;;;;;;32.03;22.53;;;6.10;99.90;;;;;;5074912;28;20449;-77
2022/11/26 02:15:27;;;;;;;27.43;21.87;;;6.10;99.90;;;;;;5076049;28;20926;-77
2022/11/26 02:18:00;;;;;;;37.70;21.63;;;6.10;99.90;;;;;;5076030;28;20941;-77
2022/11/26 02:20:45;;;;;;;36.10;22.37;;;6.10;99.90;;;;;;5075944;28;20775;-77
2022/11/26 02:23:48;;;;;;;33.47;22.40;;;6.10;99.90;;;;;;5074560;28;20472;-77
2022/11/26 02:26:48;;;;;;;31.80;20.27;;;6.10;99.90;;;;;;5074512;28;20444;-77
2022/11/26 02:29:23;;;;;;;36.70;21.60;;;6.10;99.90;;;;;;5074573;28;20441;-77
2022/11/26 02:31:58;;;;;;;30.10;22.00;;;6.10;99.90;;;;;;5074301;28;20522;-77
2022/11/26 02:34:34;;;;;;;40.37;23.60;;;6.10;99.90;;;;;;5074363;28;20594;-77
2022/11/26 02:37:10;;;;;;;31.13;23.27;;;6.10;99.90;;;;;;5074982;28;20445;-77
2022/11/26 02:39:38;;;;;;;30.50;21.60;;;6.10;99.90;;;;;;5075971;28;20437;-77
2022/11/26 02:42:23;;;;;;;28.83;22.13;;;6.10;99.90;;;;;;5074216;28;20507;-77
2022/11/26 02:44:53;;;;;;;33.83;22.80;;;6.00;99.90;;;;;;5074188;28;20974;-77
2022/11/26 02:47:26;;;;;;;36.63;24.13;;;6.00;99.90;;;;;;5075366;28;20448;-77
2022/11/26 02:49:57;;;;;;;33.10;22.47;;;6.00;99.90;;;;;;5075404;28;20425;-77
2022/11/26 02:52:26;;;;;;;34.37;23.27;;;6.00;99.90;;;;;;5073965;28;20461;-77
2022/11/26 02:54:55;;;;;;;31.67;23.00;;;6.00;99.90;;;;;;5075240;28;20544;-77
2022/11/26 02:57:27;;;;;;;33.87;24.33;;;6.00;99.90;;;;;;5073910;28;20441;-77
2022/11/26 02:59:56;;;;;;;39.83;24.93;;;6.00;99.90;;;;;;5073908;28;20946;-77
2022/11/26 03:02:30;;;;;;;29.47;23.23;;;6.00;99.90;;;;;;5073916;28;20461;-77
2022/11/26 03:05:01;;;;;;;35.60;23.87;;;6.00;99.90;;;;;;5075035;28;20460;-77
2022/11/26 03:07:30;;;;;;;33.80;23.47;;;6.00;99.90;;;;;;5074092;28;20485;-77
2022/11/26 03:10:00;;;;;;;29.67;22.57;;;6.00;99.90;;;;;;5074919;28;20946;-77
2022/11/26 03:12:29;;;;;;;33.87;23.73;;;6.00;99.90;;;;;;5073570;28;20557;-77
2022/11/26 03:14:57;;;;;;;32.90;22.33;;;6.00;99.90;;;;;;5075219;28;20468;-77
2022/11/26 03:17:26;;;;;;;31.17;23.37;;;6.00;99.90;;;;;;5075189;28;20446;-77
2022/11/26 03:19:55;;;;;;;30.00;22.17;;;6.00;99.90;;;;;;5074184;28;20444;-77
2022/11/26 03:22:23;;;;;;;39.40;23.80;;;6.00;99.90;;;;;;5073480;28;20455;-77
2022/11/26 03:24:51;;;;;;;31.77;24.17;;;6.00;99.90;;;;;;5073446;28;20468;-77
2022/11/26 03:27:19;;;;;;;35.13;23.83;;;6.00;99.90;;;;;;5073288;28;20442;-77
2022/11/26 03:29:47;;;;;;;30.30;22.97;;;6.00;99.90;;;;;;5073319;28;20495;-78
2022/11/26 03:32:15;;;;;;;33.83;23.17;;;6.00;99.90;;;;;;5073745;28;20493;-77
2022/11/26 03:34:46;;;;;;;33.40;23.40;;;6.00;99.90;;;;;;5074400;28;20518;-77
2022/11/26 03:37:14;;;;;;;32.30;24.57;;;6.00;99.90;;;;;;5074462;28;20440;-77
2022/11/26 03:39:42;;;;;;;31.20;24.07;;;5.90;99.90;;;;;;5073099;28;20450;-77
2022/11/26 03:42:10;;;;;;;31.20;23.50;;;5.90;99.90;;;;;;5073073;28;20859;-77
2022/11/26 03:44:39;;;;;;;36.80;25.07;;;5.90;99.90;;;;;;5073042;28;20520;-77
2022/11/26 03:47:07;;;;;;;36.70;25.03;;;5.90;99.90;;;;;;5074362;28;20433;-77
2022/11/26 03:49:35;;;;;;;39.43;25.07;;;5.90;99.90;;;;;;5074264;28;20455;-78
2022/11/26 03:52:05;;;;;;;32.60;25.97;;;5.90;99.90;;;;;;5072800;28;20515;-77
2022/11/26 03:54:33;;;;;;;32.83;24.53;;;5.90;99.90;;;;;;5072846;28;20982;-77
2022/11/26 03:57:01;;;;;;;35.50;25.63;;;5.90;99.90;;;;;;5072831;28;20469;-77
2022/11/26 03:59:30;;;;;;;36.70;25.37;;;5.90;99.90;;;;;;5074530;28;20441;-77
2022/11/26 04:01:58;;;;;;;38.00;27.03;;;5.90;99.90;;;;;;5072584;28;20441;-77
2022/11/26 04:04:26;;;;;;;35.07;25.90;;;5.80;99.90;;;;;;5072540;28;20461;-77
2022/11/26 04:06:54;;;;;;;31.73;26.17;;;5.80;99.90;;;;;;5073822;28;20448;-77
2022/11/26 04:09:23;;;;;;;40.80;27.43;;;5.80;99.90;;;;;;5073795;28;20504;-77
2022/11/26 04:11:52;;;;;;;39.27;25.90;;;5.80;99.90;;;;;;5072409;28;20473;-77
2022/11/26 04:14:20;;;;;;;34.67;24.40;;;5.80;99.90;;;;;;5073675;28;20460;-77
2022/11/26 04:16:48;;;;;;;34.80;25.50;;;5.80;99.90;;;;;;5072365;28;20449;-77
2022/11/26 04:19:16;;;;;;;32.87;24.70;;;5.70;99.90;;;;;;5072383;28;20449;-77
2022/11/26 04:21:44;;;;;;;39.10;30.87;;;5.70;99.90;;;;;;5073563;28;20437;-77
2022/11/26 04:24:15;;;;;;;37.30;27.20;;;5.70;99.90;;;;;;5072276;28;20461;-77
2022/11/26 04:26:44;;;;;;;35.23;28.33;;;5.70;99.90;;;;;;5072295;28;20450;-77
2022/11/26 04:29:12;;;;;;;34.30;25.53;;;5.60;99.90;;;;;;5073734;28;20437;-77
2022/11/26 04:31:40;;;;;;;37.40;26.60;;;5.60;99.90;;;;;;5071541;28;20477;-77
2022/11/26 04:34:08;;;;;;;32.73;27.60;;;5.60;99.90;;;;;;5072070;28;20507;-77
2022/11/26 04:36:38;;;;;;;42.37;26.53;;;5.60;99.90;;;;;;5072150;28;20445;-77
2022/11/26 04:39:06;;;;;;;37.97;27.67;;;5.50;99.90;;;;;;5072120;28;20449;-77
2022/11/26 04:41:34;;;;;;;43.80;29.00;;;5.50;99.90;;;;;;5072326;28;20460;-77
2022/11/26 04:44:04;;;;;;;43.20;29.23;;;5.50;99.90;;;;;;5071977;28;20480;-77
2022/11/26 04:46:32;;;;;;;46.57;29.33;;;5.50;99.90;;;;;;5072212;28;20502;-77
2022/11/26 04:49:00;;;;;;;51.30;33.60;;;5.40;99.90;;;;;;5073767;28;20494;-77
2022/11/26 04:51:28;;;;;;;44.13;30.77;;;5.40;99.90;;;;;;5073722;28;20445;-77
2022/11/26 04:53:56;;;;;;;41.93;29.83;;;5.40;99.90;;;;;;5071861;28;20519;-77
2022/11/26 04:56:30;;;;;;;47.50;30.83;;;5.40;99.90;;;;;;5073188;28;20468;-77
2022/11/26 04:58:58;;;;;;;43.40;31.30;;;5.30;99.90;;;;;;5073162;28;20441;-77
2022/11/26 05:01:27;;;;;;;48.00;31.67;;;5.30;99.90;;;;;;5073395;28;20444;-77
2022/11/26 05:03:55;;;;;;;50.77;34.33;;;5.30;99.90;;;;;;5072999;28;20500;-77
2022/11/26 05:06:23;;;;;;;46.50;33.13;;;5.30;99.90;;;;;;5073668;28;20486;-77
2022/11/26 05:08:51;;;;;;;49.40;32.50;;;5.30;99.90;;;;;;5073126;28;20437;-78
2022/11/26 05:11:20;;;;;;;46.07;33.23;;;5.30;99.90;;;;;;5071738;28;20536;-78
2022/11/26 05:13:48;;;;;;;43.70;31.80;;;5.30;99.90;;;;;;5072115;28;20480;-77
2022/11/26 05:16:16;;;;;;;47.87;33.53;;;5.20;99.90;;;;;;5073187;28;20434;-78
2022/11/26 05:18:45;;;;;;;50.40;35.40;;;5.30;99.90;;;;;;5073026;28;20502;-77
2022/11/26 05:21:13;;;;;;;41.73;32.60;;;5.30;99.90;;;;;;5073245;28;20444;-77
2022/11/26 05:23:42;;;;;;;46.10;32.73;;;5.30;99.90;;;;;;5072921;28;20854;-77
2022/11/26 05:26:10;;;;;;;47.73;32.70;;;5.30;99.90;;;;;;5072930;28;20433;-77
2022/11/26 05:28:38;;;;;;;43.93;33.20;;;5.30;99.90;;;;;;5074750;28;20837;-77
2022/11/26 05:31:06;;;;;;;40.10;31.20;;;5.30;99.90;;;;;;5075935;28;20532;-78
2022/11/26 05:33:34;;;;;;;46.23;30.20;;;5.30;99.90;;;;;;5073742;28;20837;-77
2022/11/26 05:36:05;;;;;;;48.30;33.87;;;5.30;99.90;;;;;;5074025;28;20433;-77
2022/11/26 05:38:33;;;;;;;49.10;34.43;;;5.30;99.90;;;;;;5073490;28;20437;-77
2022/11/26 05:41:01;;;;;;;50.90;33.57;;;5.40;99.90;;;;;;5073277;28;20442;-77
2022/11/26 05:43:29;;;;;;;52.10;34.97;;;5.40;99.90;;;;;;5075349;28;20507;-77
2022/11/26 05:46:02;;;;;;;48.53;34.43;;;5.40;99.90;;;;;;5075317;28;20859;-77
2022/11/26 05:48:30;;;;;;;42.90;32.00;;;5.40;99.90;;;;;;5077079;28;20426;-77
2022/11/26 05:50:59;;;;;;;49.93;35.10;;;5.40;99.90;;;;;;5076364;28;20444;-77
2022/11/26 05:53:29;;;;;;;65.13;35.07;;;5.40;99.90;;;;;;5074923;28;20485;-77
2022/11/26 05:55:57;;;;;;;41.90;33.73;;;5.30;99.90;;;;;;5076288;28;20452;-77
2022/11/26 05:58:25;;;;;;;48.53;33.83;;;5.40;99.90;;;;;;5076495;28;20441;-78
2022/11/26 06:00:54;;;;;;;44.63;33.23;;;5.40;99.90;;;;;;5076327;28;20471;-77
2022/11/26 06:03:22;;;;;;;44.20;33.03;;;5.40;99.90;;;;;;5074878;28;20472;-78
2022/11/26 06:05:50;;;;;;;50.77;34.10;;;5.40;99.90;;;;;;5074799;28;20459;-78
2022/11/26 06:08:19;;;;;;;55.90;35.37;;;5.40;99.90;;;;;;5075133;28;20811;-77
2022/11/26 06:10:48;;;;;;;54.50;34.93;;;5.40;99.90;;;;;;5076113;28;20475;-77
2022/11/26 06:13:16;;;;;;;49.50;34.33;;;5.40;99.90;;;;;;5074798;28;20477;-77
2022/11/26 06:15:45;;;;;;;55.50;37.10;;;5.50;99.90;;;;;;5074666;28;20433;-77
2022/11/26 06:18:13;;;;;;;52.70;34.60;;;5.50;99.90;;;;;;5074871;28;20476;-78
2022/11/26 06:20:41;;;;;;;58.53;34.67;;;5.50;99.90;;;;;;5074846;28;20498;-77
2022/11/26 06:23:09;;;;;;;49.10;33.40;;;5.50;99.90;;;;;;5074766;28;20457;-77
2022/11/26 06:25:39;;;;;;;47.70;33.93;;;5.40;99.90;;;;;;5074899;28;20495;-77
2022/11/26 06:28:09;;;;;;;47.73;33.47;;;5.50;99.90;;;;;;5076042;28;20429;-78
2022/11/26 06:30:37;;;;;;;54.10;34.90;;;5.50;99.90;;;;;;5076005;28;20459;-77
2022/11/26 06:33:05;;;;;;;59.63;36.10;;;5.50;99.90;;;;;;5074648;28;20553;-77
2022/11/26 06:35:34;;;;;;;57.90;35.30;;;5.50;99.90;;;;;;5075832;28;20442;-77
2022/11/26 06:38:02;;;;;;;64.30;36.40;;;5.50;99.90;;;;;;5075603;28;20461;-77
2022/11/26 06:40:30;;;;;;;54.20;37.17;;;5.50;99.90;;;;;;5074446;28;20457;-77
2022/11/26 06:42:58;;;;;;;56.23;35.70;;;5.50;99.90;;;;;;5074542;28;21002;-78
2022/11/26 06:45:27;;;;;;;52.87;34.87;;;5.50;99.90;;;;;;5074246;28;20487;-77
2022/11/26 06:47:56;;;;;;;54.07;35.57;;;5.60;99.90;;;;;;5075494;28;20445;-77
2022/11/26 06:50:24;;;;;;;54.63;34.97;;;5.50;99.90;;;;;;5074196;28;20958;-77
2022/11/26 06:52:52;;;;;;;56.60;34.23;;;5.50;99.90;;;;;;5073315;28;20576;-77
2022/11/26 06:55:21;;;;;;;64.67;37.20;;;5.60;99.90;;;;;;5075424;28;20433;-77
2022/11/26 06:57:50;;;;;;;54.47;35.20;;;5.60;99.90;;;;;;5073936;28;20453;-77
2022/11/26 07:00:20;;;;;;;48.60;35.90;;;5.60;99.90;;;;;;5073984;28;20442;-77
2022/11/26 07:02:50;;;;;;;56.10;35.67;;;5.60;99.90;;;;;;5075052;28;20441;-77
2022/11/26 07:05:18;;;;;;;53.73;34.07;;;5.60;99.90;;;;;;5073952;28;20484;-77
2022/11/26 07:07:46;;;;;;;48.10;34.63;;;5.60;99.90;;;;;;5075018;28;20460;-77
2022/11/26 07:10:14;;;;;;;54.47;33.87;;;5.60;99.90;;;;;;5073741;28;20491;-77
2022/11/26 07:12:42;;;;;;;55.40;33.70;;;5.60;99.90;;;;;;5073842;28;20491;-77
2022/11/26 07:15:11;;;;;;;59.33;35.60;;;5.60;99.90;;;;;;5073684;28;20825;-77
2022/11/26 07:17:39;;;;;;;59.07;38.80;;;5.60;99.90;;;;;;5073653;28;20494;-77
2022/11/26 07:20:10;;;;;;;61.20;37.77;;;5.70;99.90;;;;;;5073521;28;20445;-77
2022/11/26 07:22:38;;;;;;;61.60;37.43;;;5.70;99.90;;;;;;5073415;28;20449;-78
2022/11/26 07:25:06;;;;;;;62.23;39.00;;;5.70;99.90;;;;;;5074707;28;21014;-77
2022/11/26 07:27:40;;;;;;;61.70;37.13;;;5.70;99.90;;;;;;5073443;28;20926;-77
2022/11/26 07:30:09;;;;;;;63.87;38.50;;;5.70;99.90;;;;;;5074692;28;20441;-77
2022/11/26 07:32:37;;;;;;;52.10;36.87;;;5.70;99.90;;;;;;5073184;28;20449;-77
2022/11/26 07:35:06;;;;;;;51.57;35.10;;;5.70;99.90;;;;;;5074327;28;20528;-77
2022/11/26 07:37:35;;;;;;;56.00;37.30;;;5.70;99.90;;;;;;5073186;28;20445;-77
2022/11/26 07:40:05;;;;;;;58.40;35.90;;;5.70;99.90;;;;;;5073156;28;20457;-77
2022/11/26 07:42:33;;;;;;;55.53;34.40;;;5.70;99.90;;;;;;5073175;28;20456;-77
2022/11/26 07:45:03;;;;;;;52.60;35.47;;;5.70;99.90;;;;;;5073628;28;20454;-78
2022/11/26 07:47:31;;;;;;;58.60;33.80;;;5.70;99.90;;;;;;5072987;28;20445;-78
2022/11/26 07:49:59;;;;;;;54.07;33.17;;;5.70;99.90;;;;;;5072975;28;20449;-77
2022/11/26 07:52:27;;;;;;;54.33;33.07;;;5.70;99.90;;;;;;5074212;28;20437;-77
2022/11/26 07:54:57;;;;;;;49.30;32.13;;;5.70;99.90;;;;;;5072653;28;20523;-77
2022/11/26 07:57:25;;;;;;;60.07;34.10;;;5.70;99.90;;;;;;5072814;28;20481;-77
2022/11/26 07:59:53;;;;;;;42.10;32.07;;;5.70;99.90;;;;;;5074196;28;20441;-77
2022/11/26 08:02:21;;;;;;;42.13;31.00;;;5.70;99.90;;;;;;5071601;28;21031;-78
2022/11/26 08:04:49;;;;;;;50.17;31.03;;;5.70;99.90;;;;;;5073503;28;20461;-77
2022/11/26 08:07:17;;;;;;;58.33;35.00;;;5.70;99.90;;;;;;5072723;28;20460;-78
2022/11/26 08:10:00;;;;;;;42.10;29.40;;;5.70;99.90;;;;;;5071606;28;20545;-77
2022/11/26 08:12:28;;;;;;;51.30;31.37;;;5.70;99.90;;;;;;5074048;28;20442;-76
2022/11/26 08:14:56;;;;;;;38.87;30.07;;;5.70;99.90;;;;;;5072356;28;20472;-77
2022/11/26 08:17:24;;;;;;;47.73;31.83;;;5.70;99.90;;;;;;5072566;28;20441;-77
2022/11/26 08:19:52;;;;;;;58.67;32.40;;;5.70;99.90;;;;;;5073730;28;20444;-77
2022/11/26 08:22:20;;;;;;;39.57;32.53;;;5.80;99.90;;;;;;5073771;28;20467;-76
2022/11/26 08:24:50;;;;;;;41.63;30.13;;;5.80;99.90;;;;;;5073698;28;20499;-77
2022/11/26 08:27:19;;;;;;;39.60;32.17;;;5.70;99.90;;;;;;5073556;28;20449;-77
2022/11/26 08:29:48;;;;;;;42.07;31.07;;;5.70;99.90;;;;;;5073624;28;20445;-77
2022/11/26 08:32:16;;;;;;;45.30;31.10;;;5.80;99.90;;;;;;5072443;28;20950;-76
2022/11/26 08:34:44;;;;;;;44.33;31.27;;;5.80;99.90;;;;;;5072324;28;20473;-76
2022/11/26 08:37:12;;;;;;;44.13;30.40;;;5.80;99.90;;;;;;5072414;28;20473;-76
2022/11/26 08:39:40;;;;;;;39.23;31.33;;;5.80;99.90;;;;;;5072355;28;20784;-77
2022/11/26 08:42:08;;;;;;;41.10;30.13;;;5.90;99.90;;;;;;5072267;28;20445;-77
2022/11/26 08:44:38;;;;;;;35.87;31.47;;;5.90;99.90;;;;;;5072176;28;20530;-78
2022/11/26 08:47:20;;;;;;;39.80;30.43;;;5.90;99.90;;;;;;5070566;28;20969;-77
2022/11/26 08:49:49;;;;;;;40.90;32.17;;;5.90;99.90;;;;;;5073597;28;20445;-77
2022/11/26 08:52:17;;;;;;;40.07;32.37;;;5.90;99.90;;;;;;5071970;28;20449;-77
2022/11/26 08:54:45;;;;;;;35.63;31.67;;;6.00;99.90;;;;;;5073319;28;20470;-77
2022/11/26 08:57:14;;;;;;;42.57;33.70;;;6.00;99.90;;;;;;5072415;28;20446;-77
2022/11/26 08:59:43;;;;;;;42.53;32.80;;;6.00;99.90;;;;;;5076165;28;20445;-78
2022/11/26 09:02:12;;;;;;;43.67;33.00;;;6.00;99.90;;;;;;5076831;28;20455;-77
2022/11/26 09:04:45;;;;;;;39.93;32.80;;;6.10;99.90;;;;;;5073259;28;20824;-77
2022/11/26 09:07:14;;;;;;;38.67;31.13;;;6.10;99.90;;;;;;5074984;28;20452;-77
2022/11/26 09:09:42;;;;;;;43.77;34.90;;;6.10;99.90;;;;;;5075914;28;20437;-77
2022/11/26 09:12:11;;;;;;;44.37;36.17;;;6.10;99.90;;;;;;5074320;28;20441;-76
2022/11/26 09:14:40;;;;;;;44.07;34.63;;;6.20;99.90;;;;;;5075099;28;20519;-76
2022/11/26 09:17:12;;;;;;;41.37;33.77;;;6.20;99.90;;;;;;5076121;28;20447;-77
2022/11/26 09:19:40;;;;;;;37.60;33.30;;;6.20;99.90;;;;;;5078108;28;20433;-77
2022/11/26 09:22:08;;;;;;;40.90;34.23;;;6.30;99.90;;;;;;5078614;28;20452;-77
2022/11/26 09:24:36;;;;;;;39.13;33.13;;;6.30;99.90;;;;;;5077324;28;20469;-79
2022/11/26 09:27:05;;;;;;;47.60;34.30;;;6.30;99.90;;;;;;5081063;28;20427;-78
2022/11/26 09:29:37;;;;;;;43.70;34.93;;;6.40;99.90;;;;;;5084463;28;20541;-78
2022/11/26 09:32:08;;;;;;;41.30;34.40;;;6.40;99.90;;;;;;5085269;28;20445;-77
2022/11/26 09:34:53;;;;;;;41.10;34.30;;;6.40;99.90;;;;;;5088625;28;20947;-77
2022/11/26 09:37:21;;;;;;;44.30;34.83;;;6.50;99.90;;;;;;5074024;28;20460;-77
2022/11/26 09:39:50;;;;;;;42.80;35.53;;;6.50;99.90;;;;;;5066947;28;20537;-77
2022/11/26 09:42:28;;;;;;;49.00;36.33;;;6.50;99.90;;;;;;5067175;28;20446;-77
2022/11/26 09:45:04;;;;;;;49.43;36.83;;;6.60;99.90;;;;;;5068029;28;20519;-77
2022/11/26 09:47:38;;;;;;;48.13;36.90;;;6.60;99.90;;;;;;5066197;28;20813;-77
2022/11/26 09:50:20;;;;;;;47.03;37.00;;;6.70;99.90;;;;;;5080070;28;20453;-77
2022/11/26 09:52:55;;;;;;;47.20;37.40;;;6.70;99.90;;;;;;5076642;28;20449;-77
2022/11/26 09:55:26;;;;;;;46.67;36.47;;;6.70;99.90;;;;;;5084963;28;21041;-78
2022/11/26 09:58:03;;;;;;;48.73;39.17;;;6.80;99.90;;;;;;5078894;28;21052;-77
2022/11/26 10:00:37;;;;;;;47.53;37.30;;;6.80;99.90;;;;;;5076132;28;20946;-77
2022/11/26 10:03:14;;;;;;;46.17;35.90;;;6.90;99.90;;;;;;5076700;28;20880;-77
2022/11/26 10:05:50;;;;;;;50.77;37.37;;;6.90;99.90;;;;;;5076065;28;20956;-78
2022/11/26 10:08:53;;;;;;;44.20;35.90;;;7.00;99.90;;;;;;5074870;28;20482;-77
2022/11/26 10:11:28;;;;;;;49.27;38.20;;;7.00;99.90;;;;;;5075800;28;20433;-77
2022/11/26 10:14:09;;;;;;;49.10;38.27;;;7.00;99.90;;;;;;5075438;28;20472;-77
2022/11/26 10:16:43;;;;;;;50.63;37.10;;;7.10;99.90;;;;;;5075318;28;20448;-78
2022/11/26 10:19:20;;;;;;;46.20;37.47;;;7.10;99.90;;;;;;5076774;28;20474;-78
2022/11/26 10:21:54;;;;;;;44.07;36.97;;;7.10;99.90;;;;;;5075614;28;20867;-78
2022/11/26 10:24:30;;;;;;;45.67;35.07;;;7.20;99.90;;;;;;5076652;28;20480;-78
2022/11/26 10:27:01;;;;;;;46.10;37.37;;;7.20;99.90;;;;;;5075469;28;20437;-78
2022/11/26 10:29:37;;;;;;;50.27;37.80;;;7.20;99.90;;;;;;5076499;28;20777;-77
2022/11/26 10:32:13;;;;;;;42.27;35.10;;;7.20;99.90;;;;;;5075055;28;20454;-77
2022/11/26 10:34:49;;;;;;;50.57;37.60;;;7.30;99.90;;;;;;5075028;28;20478;-78
2022/11/26 10:37:20;;;;;;;48.87;37.20;;;7.30;99.90;;;;;;5075171;28;20443;-77
2022/11/26 10:39:56;;;;;;;47.63;39.33;;;7.40;99.90;;;;;;5076174;28;20852;-77
2022/11/26 10:42:41;;;;;;;51.03;39.77;;;7.40;99.90;;;;;;5074520;28;20447;-77
2022/11/26 10:45:18;;;;;;;51.00;41.27;;;7.40;99.90;;;;;;5074530;28;20846;-77
2022/11/26 10:47:46;;;;;;;52.53;41.67;;;7.50;99.90;;;;;;5075931;28;20435;-77
2022/11/26 10:50:21;;;;;;;53.30;41.67;;;7.50;99.90;;;;;;5073140;28;20461;-77
2022/11/26 10:53:21;;;;;;;49.00;40.57;;;7.50;99.90;;;;;;5074108;28;20855;-77
2022/11/26 10:55:50;;;;;;;53.03;39.80;;;7.50;99.90;;;;;;5075550;28;20470;-77
2022/11/26 10:58:21;;;;;;;48.17;38.83;;;7.60;99.90;;;;;;5074091;28;20451;-77
2022/11/26 11:00:56;;;;;;;48.50;39.10;;;7.60;99.90;;;;;;5074119;28;20527;-77
2022/11/26 11:03:27;;;;;;;44.70;38.60;;;7.60;99.90;;;;;;5073894;28;20477;-77
2022/11/26 11:06:34;;;;;;;43.13;37.00;;;7.60;99.90;;;;;;5075407;28;20472;-77
2022/11/26 11:09:28;;;;;;;51.50;39.20;;;7.60;99.90;;;;;;5073884;28;20452;-77
2022/11/26 11:12:22;;;;;;;39.20;30.70;;;7.70;99.90;;;;;;5073809;28;20448;-77
2022/11/26 11:14:52;;;;;;;46.20;38.23;;;7.60;99.90;;;;;;5073650;28;20465;-77
2022/11/26 11:17:32;;;;;;;52.80;41.30;;;7.70;99.90;;;;;;5073698;28;20454;-77
2022/11/26 11:20:06;;;;;;;48.73;40.00;;;7.70;99.90;;;;;;5073712;28;20447;-77
2022/11/26 11:22:35;;;;;;;47.53;40.70;;;7.70;99.90;;;;;;5073593;28;20936;-77
2022/11/26 11:25:05;;;;;;;48.40;38.97;;;7.70;99.90;;;;;;5073519;28;20459;-77
2022/11/26 11:27:43;;;;;;;54.37;39.37;;;7.70;99.90;;;;;;5075183;28;20830;-77
2022/11/26 11:30:25;;;;;;;52.37;43.80;;;7.70;99.90;;;;;;5073278;28;20461;-77
2022/11/26 11:32:56;;;;;;;52.27;41.27;;;7.70;99.90;;;;;;5074887;28;20433;-77
2022/11/26 11:35:29;;;;;;;56.97;42.23;;;7.80;99.90;;;;;;5073368;28;20487;-77
2022/11/26 11:37:58;;;;;;;63.60;44.27;;;7.80;99.90;;;;;;5073271;28;20454;-77
2022/11/26 11:40:29;;;;;;;61.33;42.97;;;7.80;99.90;;;;;;5071796;28;20863;-77
2022/11/26 11:43:00;;;;;;;58.03;43.33;;;7.80;99.90;;;;;;5074387;28;20453;-77
2022/11/26 11:45:34;;;;;;;59.13;42.80;;;7.90;99.90;;;;;;5074745;28;20435;-77
2022/11/26 11:48:17;;;;;;;53.40;42.40;;;7.90;99.90;;;;;;5073935;28;20432;-77
2022/11/26 11:50:51;;;;;;;54.73;41.60;;;7.90;99.90;;;;;;5073093;28;20462;-77
2022/11/26 11:53:34;;;;;;;51.53;39.37;;;7.90;99.90;;;;;;5072889;28;20471;-77
2022/11/26 11:56:28;;;;;;;57.33;42.53;;;7.90;99.90;;;;;;5072843;28;20493;-77
2022/11/26 11:59:34;;;;;;;52.53;42.47;;;8.00;99.90;;;;;;5073011;28;20460;-77
2022/11/26 12:02:41;;;;;;;55.43;41.73;;;8.00;99.90;;;;;;5074182;28;20753;-77
2022/11/26 12:05:31;;;;;;;55.37;40.80;;;8.00;99.90;;;;;;5033256;28;20448;-77
2022/11/26 12:08:11;;;;;;;58.53;42.50;;;8.00;99.90;;;;;;5072732;28;20449;-77
2022/11/26 12:10:48;;;;;;;51.20;42.73;;;8.00;99.90;;;;;;5072638;28;20446;-77
2022/11/26 12:13:21;;;;;;;56.80;42.80;;;8.00;99.90;;;;;;5073841;28;20963;-77
2022/11/26 12:15:53;;;;;;;56.93;43.60;;;8.00;99.90;;;;;;5072556;28;20466;-77
2022/11/26 12:18:27;;;;;;;59.07;42.07;;;8.00;99.90;;;;;;5072556;28;20802;-77
2022/11/26 12:20:59;;;;;;;66.73;44.57;;;8.00;99.90;;;;;;5073692;28;20429;-77
2022/11/26 12:23:32;;;;;;;54.87;42.90;;;8.10;99.90;;;;;;5072421;28;20470;-77
2022/11/26 12:26:06;;;;;;;55.30;41.47;;;8.00;99.90;;;;;;5074036;28;20425;-77
2022/11/26 12:28:40;;;;;;;53.03;42.57;;;8.00;99.90;;;;;;5069303;28;20464;-77
2022/11/26 12:31:17;;;;;;;55.00;41.13;;;8.10;99.90;;;;;;5070295;28;20471;-77
2022/11/26 12:33:50;;;;;;;47.60;40.03;;;8.00;99.90;;;;;;5070952;28;20575;-77
2022/11/26 12:36:23;;;;;;;49.30;38.83;;;8.00;99.90;;;;;;5072234;28;20465;-77
2022/11/26 12:38:53;;;;;;;47.97;40.50;;;8.00;99.90;;;;;;5072367;28;20440;-77
2022/11/26 12:41:27;;;;;;;53.47;39.20;;;8.00;99.90;;;;;;5073812;28;20783;-77
2022/11/26 12:44:04;;;;;;;45.37;39.93;;;8.10;99.90;;;;;;5073518;28;20586;-78
2022/11/26 12:46:39;;;;;;;51.03;39.07;;;8.10;99.90;;;;;;5073820;28;20917;-77
2022/11/26 12:49:16;;;;;;;51.93;39.70;;;8.10;99.90;;;;;;5072223;28;20438;-77
2022/11/26 12:51:49;;;;;;;45.40;38.43;;;8.10;99.90;;;;;;5071571;28;20454;-78
2022/11/26 12:54:23;;;;;;;52.67;40.60;;;8.10;99.90;;;;;;5072257;28;21013;-78
2022/11/26 12:56:59;;;;;;;51.27;40.37;;;8.10;99.90;;;;;;5072923;28;20475;-78
2022/11/26 12:59:33;;;;;;;51.00;40.50;;;8.10;99.90;;;;;;5073344;28;20448;-76